Time;durP1;ratioP1;P1;durP2;ratioP2;P2;SDS_P1;SDS_P2;PMS_P1;PMS_P2;Temp;Humidity;BMP_temperature;BMP_pressure;BME280_temperature;BME280_humidity;BME280_pressure;Samples;Min_cycle;Max_cycle;Signal;HPM_P1;HPM_P2
2023/03/24 00:18:31;;;;;;;;;;;;;;;;;;;;;
2023/03/24 00:24:07;;;;;;;;;;;;;;;;;;;;;
2023/03/24 00:30:23;;;;;;;;;;;;;;;;;;;;;
2023/03/24 00:33:43;;;;;;;;;;;;;;;;;;;;;
2023/03/24 00:42:46;;;;;;;13.40;5.97;;;;;;;9.73;69.87;99198.50;6171845;23;20590;-93
2023/03/24 00:46:05;;;;;;;12.73;5.97;;;;;;;9.84;69.64;99204.06;6190246;23;20141;-92
2023/03/24 00:49:11;;;;;;;;;;;;;;;;;;;;;
2023/03/24 00:51:51;;;;;;;;;;;;;;;;;;;;;
2023/03/24 00:54:41;;;;;;;;;;;;;;;;;;;;;
2023/03/24 01:00:22;;;;;;;10.90;5.13;;;;;;;9.66;69.38;99202.34;6194141;23;20169;-92
2023/03/24 01:03:27;;;;;;;11.97;6.03;;;;;;;9.51;69.66;99205.69;6214885;23;20193;-92
2023/03/24 01:12:19;;;;;;;16.13;9.57;;;;;;;9.50;69.33;99193.53;6194965;23;20157;-91
2023/03/24 01:14:51;;;;;;;15.13;7.33;;;;;;;9.49;69.05;99189.19;6190820;23;20170;-93
2023/03/24 01:17:31;;;;;;;;;;;;;;;;;;;;;
2023/03/24 01:20:09;;;;;;;;;;;;;;;;;;;;;
2023/03/24 01:25:46;;;;;;;;;;;;;;;;;;;;;
2023/03/24 01:28:24;;;;;;;;;;;;;;;;;;;;;
2023/03/24 01:30:57;;;;;;;10.83;6.13;;;;;;;9.24;67.61;99179.91;6217396;23;20229;-91
2023/03/24 01:33:26;;;;;;;12.80;6.77;;;;;;;9.18;67.73;99188.03;6191623;23;20146;-92
2023/03/24 01:36:14;;;;;;;18.87;8.73;;;;;;;9.16;67.91;99182.03;6190915;23;20192;-91
2023/03/24 01:38:57;;;;;;;;;;;;;;;;;;;;;
2023/03/24 01:41:33;;;;;;;19.50;9.57;;;;;;;9.09;67.43;99185.00;6217912;23;20716;-93
2023/03/24 01:43:59;;;;;;;23.53;9.60;;;;;;;9.08;67.12;99191.97;6185667;23;20157;-92
2023/03/24 01:46:32;;;;;;;19.20;8.13;;;;;;;9.07;67.09;99185.03;6191339;23;20535;-93
2023/03/24 01:49:17;;;;;;;13.40;6.97;;;;;;;8.98;67.40;99177.63;6191059;23;20149;-93
2023/03/24 01:51:47;;;;;;;10.60;6.17;;;;;;;8.96;67.48;99183.84;6191077;23;20187;-92
2023/03/24 01:54:21;;;;;;;7.03;4.60;;;;;;;8.93;67.34;99184.00;6190956;23;20150;-93
2023/03/24 01:57:01;;;;;;;16.80;7.43;;;;;;;8.90;68.00;99187.59;6191032;23;20187;-92
2023/03/24 01:59:30;;;;;;;12.77;6.13;;;;;;;8.92;67.99;99180.50;6191620;23;20207;-92
2023/03/24 02:02:12;;;;;;;12.53;5.77;;;;;;;8.91;67.97;99184.03;6217046;23;20149;-92
2023/03/24 02:04:47;;;;;;;10.73;5.87;;;;;;;8.87;67.73;99187.72;6191040;23;20167;-93
2023/03/24 02:07:36;;;;;;;12.50;5.13;;;;;;;8.81;67.82;99187.97;6191648;23;20536;-92
2023/03/24 02:10:13;;;;;;;11.50;5.80;;;;;;;8.68;68.22;99184.22;6191660;23;20159;-92
2023/03/24 02:12:45;;;;;;;12.57;6.30;;;;;;;8.67;68.53;99179.94;6191856;23;20147;-92
2023/03/24 02:16:04;;;;;;;;;;;;;;;;;;;;;
2023/03/24 02:40:12;;;;;;;;;;;;;;;;;;;;;
2023/03/24 02:58:42;;;;;;;;;;;;;;;;;;;;;
2023/03/24 03:08:16;;;;;;;;;;;;;;;;;;;;;
2023/03/24 03:21:57;;;;;;;;;;;;;;;;;;;;;
2023/03/24 03:24:38;;;;;;;8.00;4.00;;;;;;;8.03;69.99;99227.03;5866534;24;20241;-92
2023/03/24 03:34:35;;;;;;;;;;;;;;;;;;;;;
2023/03/24 03:52:14;;;;;;;;;;;;;;;;;;;;;
2023/03/24 05:06:10;;;;;;;9.07;4.20;;;;;;;8.98;74.64;99201.16;5853088;24;20224;-93
2023/03/24 05:08:29;;;;;;;8.73;4.53;;;;;;;9.09;74.46;99198.88;5984881;23;20203;-93
2023/03/24 05:10:59;;;;;;;7.33;4.33;;;;;;;9.25;74.49;99202.50;6067072;23;20528;-92
2023/03/24 05:13:32;;;;;;;20.83;7.97;;;;;;;9.36;74.25;99203.75;6150679;23;20161;-93
2023/03/24 05:15:58;;;;;;;11.07;5.40;;;;;;;9.46;73.61;99207.69;6160623;23;20136;-92
2023/03/24 05:18:24;;;;;;;36.10;12.17;;;;;;;9.58;73.48;99207.09;6185970;23;20475;-93
2023/03/24 05:20:52;;;;;;;36.70;13.80;;;;;;;9.63;73.40;99199.88;6186061;23;20158;-91
2023/03/24 05:23:48;;;;;;;18.73;9.23;;;;;;;9.76;73.06;99200.97;6186768;23;20157;-92
2023/03/24 06:12:50;;;;;;;6.00;3.07;;;;;;;20.40;47.62;99216.81;6183189;23;20287;-89
2023/03/24 06:15:26;;;;;;;6.47;3.77;;;;;;;21.99;43.73;99210.44;6190940;23;20163;-88
2023/03/24 06:17:55;;;;;;;5.60;3.13;;;;;;;22.52;40.98;99213.97;6217469;23;20133;-89
2023/03/24 06:20:21;;;;;;;4.93;3.03;;;;;;;22.77;41.12;99214.22;6216689;23;20157;-89
2023/03/24 06:22:47;;;;;;;6.20;3.13;;;;;;;23.32;40.88;99215.56;6216580;23;20176;-89
2023/03/24 06:25:15;;;;;;;6.83;2.93;;;;;;;24.22;38.16;99212.25;6216802;23;20170;-89
2023/03/24 06:27:44;;;;;;;6.30;3.00;;;;;;;24.79;35.70;99224.69;6216653;23;20213;-89
2023/03/24 06:30:12;;;;;;;5.20;2.60;;;;;;;25.68;34.44;99221.03;6216633;23;20211;-89
2023/03/24 06:32:37;;;;;;;4.83;2.90;;;;;;;26.43;34.19;99222.13;6190248;23;20158;-89
2023/03/24 06:35:03;;;;;;;5.20;2.90;;;;;;;26.58;32.78;99225.69;6190404;23;20177;-90
2023/03/24 06:37:29;;;;;;;5.53;2.93;;;;;;;26.84;31.73;99224.34;6216704;23;20153;-90
2023/03/24 06:39:55;;;;;;;7.50;4.03;;;;;;;27.09;32.61;99230.34;6190141;23;20225;-89
2023/03/24 06:42:20;;;;;;;6.13;3.67;;;;;;;27.59;31.47;99226.97;6190070;23;20188;-89
2023/03/24 06:44:46;;;;;;;5.07;3.00;;;;;;;27.69;31.47;99227.50;6216684;23;20186;-89
2023/03/24 06:47:11;;;;;;;6.63;3.20;;;;;;;27.52;31.45;99230.56;6217045;23;20153;-89
2023/03/24 06:49:36;;;;;;;7.00;3.53;;;;;;;27.66;32.08;99235.09;6216314;23;20149;-90
2023/03/24 06:52:45;;;;;;;7.23;3.80;;;;;;;27.44;30.64;99226.94;6190767;23;20164;-91
2023/03/24 08:24:33;;;;;;;10.07;6.03;;;;;;;21.60;41.09;99214.28;6167440;23;20180;-90
2023/03/24 08:28:03;;;;;;;;;;;;;;;;;;;;;
2023/03/24 08:30:29;;;;;;;13.23;6.60;;;;;;;21.62;41.55;99201.69;6178188;23;20236;-90
2023/03/24 08:33:54;;;;;;;;;;;;;;;;;;;;;
2023/03/24 08:43:41;;;;;;;11.87;6.03;;;;;;;21.91;41.09;99183.66;5863838;24;20601;-90
2023/03/24 08:46:59;;;;;;;;;;;;;;;;;;;;;
2023/03/24 08:50:26;;;;;;;11.03;5.90;;;;;;;22.25;40.39;99183.84;6195440;23;20236;-91
2023/03/24 08:56:31;;;;;;;9.07;4.73;;;;;;;22.01;40.45;99179.13;6190590;23;20160;-94
2023/03/24 08:58:59;;;;;;;7.27;4.83;;;;;;;22.09;39.04;99181.84;6190125;23;20158;-93
2023/03/24 09:01:49;;;;;;;9.47;5.53;;;;;;;22.01;38.70;99176.47;6189832;23;20153;-94
2023/03/24 09:04:15;;;;;;;9.10;5.23;;;;;;;21.59;38.98;99177.97;6169155;23;20169;-93
2023/03/24 09:06:43;;;;;;;8.60;4.97;;;;;;;21.86;39.34;99167.25;6189537;23;20193;-94
2023/03/24 09:09:13;;;;;;;9.70;4.93;;;;;;;22.11;40.77;99168.38;6189706;23;20157;-92
2023/03/24 09:18:41;;;;;;;7.43;4.67;;;;;;;22.27;38.27;99155.16;5981498;23;20279;-92
2023/03/24 09:24:05;;;;;;;8.00;4.37;;;;;;;21.86;40.26;99152.09;6216450;23;20473;-94
2023/03/24 10:02:38;;;;;;;5.57;2.90;;;;;;;22.76;36.70;99135.03;5730085;24;20176;-92
2023/03/24 10:05:56;;;;;;;5.50;3.10;;;;;;;22.92;36.28;99132.44;5830414;24;20193;-94
2023/03/24 10:08:41;;;;;;;;;;;;;;;;;;;;;
2023/03/24 10:12:04;;;;;;;;;;;;;;;;;;;;;
2023/03/24 10:14:54;;;;;;;5.97;3.07;;;;;;;23.19;35.19;99117.03;6030439;23;20237;-91
2023/03/24 10:17:25;;;;;;;5.47;2.90;;;;;;;22.64;35.62;99115.75;6040394;23;20162;-92
2023/03/24 10:20:48;;;;;;;;;;;;;;;;;;;;;
2023/03/24 10:34:14;;;;;;;6.70;3.10;;;;;;;23.47;35.29;99104.31;5954349;24;20160;-95
2023/03/24 10:36:46;;;;;;;5.20;2.93;;;;;;;23.56;33.62;99095.28;5968787;23;20157;-92
2023/03/24 10:43:16;;;;;;;5.57;3.10;;;;;;;23.28;33.22;99104.53;6081185;23;20190;-95
2023/03/24 11:04:15;;;;;;;4.33;2.07;;;;;;;23.38;33.33;99078.50;5872267;24;20166;-94
2023/03/24 11:06:53;;;;;;;5.20;2.67;;;;;;;23.88;32.33;99077.59;5869508;24;20205;-93
2023/03/24 11:09:25;;;;;;;3.83;1.93;;;;;;;23.90;32.79;99070.25;5979064;24;20542;-93
2023/03/24 11:22:29;;;;;;;6.47;2.97;;;;;;;24.27;30.34;99039.28;5986895;23;20212;-94
2023/03/24 11:25:02;;;;;;;4.10;2.10;;;;;;;24.69;30.38;99040.88;6060806;23;20196;-93
2023/03/24 11:28:33;;;;;;;3.33;1.80;;;;;;;24.92;29.26;99037.31;6178618;23;20220;-94
2023/03/24 11:30:56;;;;;;;4.30;2.07;;;;;;;25.12;28.67;99027.00;6205409;23;20157;-93
2023/03/24 11:33:28;;;;;;;4.83;2.20;;;;;;;24.97;28.78;99024.22;6190510;23;20146;-92
2023/03/24 11:36:25;;;;;;;3.67;2.28;;;;;;;24.97;30.66;99023.41;6191560;23;20149;-93
2023/03/24 11:39:16;;;;;;;4.03;1.93;;;;;;;24.88;29.16;99009.19;6188557;23;20154;-92
2023/03/24 11:42:10;;;;;;;4.13;1.87;;;;;;;25.14;29.42;98997.31;6170125;23;20165;-92
2023/03/24 11:45:03;;;;;;;;;;;;;;;;;;;;;
2023/03/24 11:47:38;;;;;;;3.60;1.70;;;;;;;25.43;29.46;98995.63;6217242;23;20626;-92
2023/03/24 11:50:04;;;;;;;3.27;1.60;;;;;;;25.77;29.56;98994.41;6191058;23;20249;-94
2023/03/24 11:52:50;;;;;;;5.13;2.08;;;;;;;25.70;28.79;98990.78;6190652;23;20157;-94
2023/03/24 11:55:22;;;;;;;3.67;2.15;;;;;;;25.80;28.46;98983.28;6180359;23;20146;-91
2023/03/24 11:58:00;;;;;;;3.87;1.90;;;;;;;26.04;29.14;98970.50;6190143;23;20149;-94
2023/03/24 12:00:41;;;;;;;3.63;1.55;;;;;;;26.11;26.89;98970.59;6216694;23;20216;-92
2023/03/24 12:04:09;;;;;;;4.90;2.25;;;;;;;26.30;28.44;98966.56;6190605;23;20180;-93
2023/03/24 12:07:06;;;;;;;;;;;;;;;;;;;;;
2023/03/24 12:10:13;;;;;;;4.03;2.15;;;;;;;26.21;27.93;98955.06;6216947;23;20225;-91
2023/03/24 12:13:11;;;;;;;3.38;1.60;;;;;;;25.18;29.21;98955.72;6191452;23;20233;-92
2023/03/24 12:16:00;;;;;;;4.30;1.83;;;;;;;25.33;28.68;98953.94;6216048;23;20146;-93
2023/03/24 12:18:56;;;;;;;5.07;2.25;;;;;;;25.34;28.39;98945.69;6189853;23;20158;-91
2023/03/24 12:21:50;;;;;;;7.05;3.10;;;;;;;24.81;29.45;98943.03;6190406;23;20180;-92
2023/03/24 12:24:45;;;;;;;6.00;2.10;;;;;;;25.11;29.57;98939.50;6190774;23;20594;-92
2023/03/24 12:28:04;;;;;;;3.13;1.58;;;;;;;25.64;28.09;98935.94;6216418;23;20149;-93
2023/03/24 12:30:49;;;;;;;4.90;1.92;;;;;;;25.68;27.19;98933.75;6071689;23;20608;-91
2023/03/24 12:33:36;;;;;;;3.33;1.50;;;;;;;25.53;27.06;98925.63;6103982;23;20619;-91
2023/03/24 12:36:14;;;;;;;2.85;1.55;;;;;;;25.58;28.11;98932.13;6190116;23;20226;-92
2023/03/24 12:38:48;;;;;;;4.28;2.03;;;;;;;26.06;27.98;98930.84;6189949;23;20148;-92
2023/03/24 12:41:16;;;;;;;3.67;1.73;;;;;;;26.20;28.37;98924.66;6190688;23;20150;-93
2023/03/24 12:47:56;;;;;;;6.28;2.20;;;;;;;25.81;28.39;98916.00;6087915;23;20215;-93
2023/03/24 12:50:40;;;;;;;5.47;1.80;;;;;;;26.02;28.29;98916.09;6071643;23;20202;-92
2023/03/24 12:53:40;;;;;;;3.55;1.75;;;;;;;26.04;28.00;98906.03;6096011;23;20137;-93
2023/03/24 12:56:20;;;;;;;6.15;1.90;;;;;;;26.22;27.06;98909.22;6160281;23;20149;-91
2023/03/24 12:58:52;;;;;;;2.88;1.50;;;;;;;25.95;27.06;98909.78;6190606;23;20541;-92
2023/03/24 13:01:51;;;;;;;3.97;1.55;;;;;;;25.80;26.87;98903.56;6189797;23;20142;-92
2023/03/24 13:04:44;;;;;;;3.40;1.60;;;;;;;26.23;27.57;98896.63;6215185;23;20169;-93
2023/03/24 13:07:19;;;;;;;3.97;1.95;;;;;;;26.08;27.27;98901.09;6185494;23;20185;-92
2023/03/24 13:10:05;;;;;;;3.97;1.67;;;;;;;26.01;27.49;98895.63;6216344;23;20134;-92
2023/03/24 13:12:44;;;;;;;4.43;1.90;;;;;;;25.91;27.58;98895.09;6189604;23;20146;-93
2023/03/24 13:15:26;;;;;;;3.28;1.80;;;;;;;26.18;27.41;98889.09;6189783;23;20138;-92
2023/03/24 13:18:23;;;;;;;3.33;1.52;;;;;;;26.30;27.31;98886.78;6217044;23;20209;-93
2023/03/24 13:21:03;;;;;;;2.90;1.42;;;;;;;25.90;26.92;98882.66;6191557;23;20448;-92
2023/03/24 13:23:47;;;;;;;4.78;1.60;;;;;;;25.70;26.90;98888.75;6218800;23;20558;-94
2023/03/24 13:26:57;;;;;;;3.55;1.60;;;;;;;25.84;26.44;98886.06;6218226;23;20489;-92
2023/03/24 13:29:29;;;;;;;5.20;1.67;;;;;;;24.92;27.22;98881.78;6192053;23;20604;-93
2023/03/24 13:32:04;;;;;;;3.15;1.60;;;;;;;25.30;26.84;98873.78;6191554;23;20146;-93
2023/03/24 13:34:36;;;;;;;3.03;1.33;;;;;;;25.30;25.95;98877.31;6191760;23;20153;-92
2023/03/24 13:37:05;;;;;;;3.05;1.45;;;;;;;25.36;27.89;98878.44;6192484;23;20546;-92
2023/03/24 13:39:35;;;;;;;3.85;1.55;;;;;;;25.78;26.48;98865.34;6191683;23;20160;-94
2023/03/24 13:42:01;;;;;;;2.40;1.30;;;;;;;26.09;25.44;98865.16;6191265;23;20162;-92
2023/03/24 13:44:42;;;;;;;4.57;1.33;;;;;;;25.44;24.16;98871.16;6191468;23;20166;-94
2023/03/24 13:47:18;;;;;;;1.90;1.02;;;;;;;25.46;24.16;98863.81;6191273;23;20165;-92
2023/03/24 13:50:01;;;;;;;3.00;1.33;;;;;;;25.30;24.46;98860.38;6191031;23;20157;-91
2023/03/24 13:52:39;;;;;;;2.73;1.10;;;;;;;25.23;25.14;98849.56;6217698;23;20222;-91
2023/03/24 13:55:27;;;;;;;2.63;1.10;;;;;;;25.37;24.44;98847.91;6191263;23;20161;-91
2023/03/24 13:57:59;;;;;;;2.97;1.33;;;;;;;25.46;24.20;98852.22;6217812;23;20199;-91
2023/03/24 14:00:26;;;;;;;3.03;1.50;;;;;;;25.69;24.71;98854.84;6192368;23;20189;-92
2023/03/24 14:03:10;;;;;;;2.67;1.03;;;;;;;25.64;23.38;98852.72;6191134;23;20150;-92
2023/03/24 14:05:57;;;;;;;3.23;1.43;;;;;;;25.97;23.46;98839.78;6192143;23;20236;-93
2023/03/24 14:08:42;;;;;;;3.63;1.27;;;;;;;26.11;23.28;98842.47;6218082;23;20138;-91
2023/03/24 14:11:32;;;;;;;3.63;1.30;;;;;;;26.07;23.92;98835.78;6190969;23;20245;-91
2023/03/24 14:14:28;;;;;;;2.13;1.30;;;;;;;26.08;23.52;98839.31;6173430;23;20161;-91
2023/03/24 14:17:14;;;;;;;3.23;1.73;;;;;;;25.81;24.21;98843.50;6191412;23;20146;-92
2023/03/24 14:20:04;;;;;;;3.23;1.70;;;;;;;26.06;24.81;98830.59;6191951;23;20153;-92
2023/03/24 14:22:47;;;;;;;3.63;1.63;;;;;;;26.18;25.19;98819.22;6190939;23;20173;-94
2023/03/24 14:25:37;;;;;;;;;;;;;;;;;;;;;
2023/03/24 14:28:37;;;;;;;3.78;1.33;;;;;;;26.27;24.88;98822.66;6217634;23;20233;-94
2023/03/24 14:31:23;;;;;;;4.75;2.10;;;;;;;26.01;25.06;98820.44;6216590;23;20498;-92
2023/03/24 14:33:51;;;;;;;2.85;1.42;;;;;;;26.05;25.49;98826.25;6190958;23;20146;-94
2023/03/24 14:36:40;;;;;;;6.53;1.90;;;;;;;25.70;26.26;98816.25;6190937;23;20176;-92
2023/03/24 14:39:10;;;;;;;6.15;1.90;;;;;;;25.52;26.56;98809.38;6190860;23;20146;-92
2023/03/24 14:41:43;;;;;;;4.28;1.77;;;;;;;25.57;26.66;98806.16;6216925;23;20161;-92
2023/03/24 14:44:31;;;;;;;3.75;1.75;;;;;;;25.81;26.38;98813.97;6191422;23;20169;-92
2023/03/24 14:47:17;;;;;;;3.33;1.70;;;;;;;25.29;26.55;98807.75;6189537;23;20154;-92
2023/03/24 14:50:30;;;;;;;;;;;;;;;;;;;;;
2023/03/24 14:53:57;;;;;;;5.20;1.70;;;;;;;25.01;27.41;98799.44;6216895;23;20225;-92
2023/03/24 14:56:42;;;;;;;3.97;1.77;;;;;;;24.84;27.47;98809.44;6146636;23;20154;-93
2023/03/24 14:59:24;;;;;;;5.13;2.42;;;;;;;25.10;28.01;98805.56;6191566;23;20534;-92
2023/03/24 15:02:12;;;;;;;;;;;;;;;;;;;;;
2023/03/24 15:05:20;;;;;;;;;;;;;;;;;;;;;
2023/03/24 15:19:36;;;;;;;;;;;;;;;;;;;;;
2023/03/24 15:29:22;;;;;;;5.40;3.10;;;;;;;23.92;30.13;98781.78;5734173;25;20177;-93
2023/03/24 15:36:34;;;;;;;;;;;;;;;;;;;;;
2023/03/24 15:39:22;;;;;;;7.13;3.30;;;;;;;23.49;30.70;98775.03;6038890;23;20236;-93
2023/03/24 15:43:05;;;;;;;;;;;;;;;;;;;;;
2023/03/24 15:46:05;;;;;;;;;;;;;;;;;;;;;
2023/03/24 15:49:31;;;;;;;;;;;;;;;;;;;;;
2023/03/24 15:52:34;;;;;;;7.67;3.30;;;;;;;23.59;30.86;98781.03;5954305;24;20238;-93
2023/03/24 16:02:42;;;;;;;;;;;;;;;;;;;;;
2023/03/24 16:06:43;;;;;;;;;;;;;;;;;;;;;
2023/03/24 16:42:16;;;;;;;;;;;;;;;;;;;;;
2023/03/24 16:49:34;;;;;;;;;;;;;;;;;;;;;
2023/03/24 16:56:25;;;;;;;;;;;;;;;;;;;;;
2023/03/24 17:00:08;;;;;;;;;;;;;;;;;;;;;
2023/03/24 17:03:33;;;;;;;;;;;;;;;;;;;;;
2023/03/24 17:09:34;;;;;;;;;;;;;;;;;;;;;
2023/03/24 17:15:46;;;;;;;;;;;;;;;;;;;;;
2023/03/24 17:21:36;;;;;;;;;;;;;;;;;;;;;
2023/03/24 17:24:02;;;;;;;13.37;5.40;;;;;;;19.75;38.07;98834.44;6218593;23;20208;-92
2023/03/24 17:27:24;;;;;;;;;;;;;;;;;;;;;
2023/03/24 17:33:39;;;;;;;11.83;4.93;;;;;;;19.43;38.94;98837.47;6029753;23;20198;-94
2023/03/24 17:47:55;;;;;;;;;;;;;;;;;;;;;
2023/03/24 17:55:13;;;;;;;;;;;;;;;;;;;;;
2023/03/24 17:58:30;;;;;;;;;;;;;;;;;;;;;
2023/03/24 18:01:07;;;;;;;21.07;6.70;;;;;;;18.37;41.92;98855.13;6039780;23;20253;-92
2023/03/24 18:04:00;;;;;;;29.37;7.40;;;;;;;18.37;41.61;98852.47;6039710;23;20142;-93
2023/03/24 18:06:58;;;;;;;35.47;11.53;;;;;;;18.17;42.25;98856.06;6015932;23;20177;-93
2023/03/24 18:13:14;;;;;;;26.07;9.03;;;;;;;18.00;42.40;98862.84;6097049;23;20532;-92
2023/03/24 18:15:57;;;;;;;37.77;12.47;;;;;;;17.63;42.90;98865.19;6072937;23;20144;-94
2023/03/24 18:18:25;;;;;;;25.40;9.67;;;;;;;17.59;43.18;98862.91;6175993;23;20181;-92
2023/03/24 18:21:19;;;;;;;21.03;8.43;;;;;;;17.57;43.37;98867.50;6191450;23;20161;-92
2023/03/24 18:24:01;;;;;;;;;;;;;;;;;;;;;
2023/03/24 18:27:18;;;;;;;12.63;6.27;;;;;;;17.78;42.85;98868.34;6217215;23;20276;-93
2023/03/24 18:29:55;;;;;;;13.10;6.00;;;;;;;17.81;42.68;98862.75;6152138;23;20161;-93
2023/03/24 18:32:44;;;;;;;11.90;5.60;;;;;;;17.56;43.43;98874.63;6190978;23;20146;-92
2023/03/24 18:35:25;;;;;;;;;;;;;;;;;;;;;
2023/03/24 18:38:45;;;;;;;8.23;4.60;;;;;;;17.24;44.12;98871.19;6217295;23;20213;-92
2023/03/24 18:45:26;;;;;;;9.23;4.53;;;;;;;17.16;44.28;98868.34;6123455;23;20247;-91
2023/03/24 18:48:51;;;;;;;10.37;5.03;;;;;;;17.14;44.46;98871.09;6135814;23;20169;-93
2023/03/24 18:52:20;;;;;;;;;;;;;;;;;;;;;
2023/03/24 19:10:20;;;;;;;;;;;;;;;;;;;;;
2023/03/24 19:24:40;;;;;;;;;;;;;;;;;;;;;
2023/03/24 19:38:53;;;;;;;;;;;;;;;;;;;;;
2023/03/24 20:00:47;;;;;;;;;;;;;;;;;;;;;
2023/03/24 20:07:42;;;;;;;;;;;;;;;;;;;;;
